Time;durP1;ratioP1;P1;durP2;ratioP2;P2;SDS_P1;SDS_P2;PMS_P1;PMS_P2;Temp;Humidity;BMP_temperature;BMP_pressure;BME280_temperature;BME280_humidity;BME280_pressure;Samples;Min_cycle;Max_cycle;Signal;HPM_P1;HPM_P2
2022/10/24 02:03:26;;;;;;;9.52;3.00;;;15.70;99.90;;;;;;4935907;29;20044;-96
2022/10/24 02:06:00;;;;;;;9.57;3.10;;;15.80;99.90;;;;;;4930902;29;20054;-96
2022/10/24 02:08:36;;;;;;;14.27;3.60;;;15.90;99.90;;;;;;4897568;29;20075;-94
2022/10/24 02:11:06;;;;;;;8.55;2.90;;;15.80;99.90;;;;;;4919135;29;20043;-96
2022/10/24 02:14:02;;;;;;;9.60;3.00;;;15.80;99.90;;;;;;4921455;29;20077;-96
2022/10/24 02:16:28;;;;;;;9.45;3.28;;;15.80;99.90;;;;;;4924024;29;20043;-96
2022/10/24 02:18:56;;;;;;;8.05;3.03;;;15.80;99.90;;;;;;4919748;29;20046;-96
2022/10/24 02:21:41;;;;;;;7.20;3.10;;;15.80;99.90;;;;;;4935329;29;20052;-96
2022/10/24 02:24:17;;;;;;;8.80;3.05;;;15.80;99.90;;;;;;4935027;29;20496;-95
2022/10/24 02:26:57;;;;;;;9.48;3.03;;;15.80;99.90;;;;;;4929731;29;20473;-94
2022/10/24 02:29:35;;;;;;;9.57;3.08;;;15.80;99.90;;;;;;4928498;29;20903;-95
2022/10/24 02:32:06;;;;;;;10.00;3.30;;;15.80;99.90;;;;;;4898411;29;20054;-94
2022/10/24 02:34:32;;;;;;;;;;;15.80;99.90;;;;;;4916534;29;20095;-96
2022/10/24 02:36:59;;;;;;;7.75;2.55;;;15.70;99.90;;;;;;4901438;29;20018;-93
2022/10/24 02:39:26;;;;;;;8.50;2.75;;;15.70;99.90;;;;;;4901553;29;20059;-92
2022/10/24 02:41:55;;;;;;;10.63;2.90;;;15.70;99.90;;;;;;4909664;29;20063;-95
2022/10/24 02:44:21;;;;;;;11.90;3.92;;;15.70;99.90;;;;;;4898274;29;20055;-96
2022/10/24 02:46:50;;;;;;;9.20;3.13;;;15.70;99.90;;;;;;4894064;29;20515;-93
2022/10/24 02:49:15;;;;;;;8.68;3.22;;;15.70;99.90;;;;;;4899492;29;20063;-95
2022/10/24 02:51:43;;;;;;;11.75;3.30;;;15.70;99.90;;;;;;4904001;29;20040;-96
2022/10/24 02:54:10;;;;;;;9.80;3.08;;;15.70;99.90;;;;;;4914738;29;20050;-95
2022/10/24 02:56:40;;;;;;;9.38;2.97;;;15.60;99.90;;;;;;4902510;29;20050;-96
2022/10/24 02:59:06;;;;;;;9.38;2.92;;;15.70;99.90;;;;;;4901812;29;20044;-96
2022/10/24 03:01:31;;;;;;;8.73;3.20;;;15.60;99.90;;;;;;4901570;29;20069;-94
2022/10/24 03:03:57;;;;;;;12.02;3.10;;;15.60;99.90;;;;;;4914935;29;20149;-94
2022/10/24 03:06:23;;;;;;;8.60;2.80;;;15.60;99.90;;;;;;4919726;29;20112;-96
2022/10/24 03:08:49;;;;;;;8.40;3.10;;;15.60;99.90;;;;;;4899477;29;20047;-94
2022/10/24 03:11:15;;;;;;;10.13;3.05;;;15.50;99.90;;;;;;4906204;29;20055;-95
2022/10/24 03:13:40;;;;;;;9.20;3.13;;;15.50;99.90;;;;;;4903514;29;20050;-96
2022/10/24 03:16:06;;;;;;;11.80;3.63;;;15.50;99.90;;;;;;4912450;29;20079;-95
2022/10/24 03:18:31;;;;;;;9.63;3.20;;;15.50;99.90;;;;;;4900263;29;20507;-93
2022/10/24 03:20:57;;;;;;;11.88;3.55;;;15.50;99.90;;;;;;4901154;29;20074;-95
2022/10/24 03:23:27;;;;;;;9.40;3.40;;;15.50;99.90;;;;;;4901478;29;20051;-95
2022/10/24 03:25:56;;;;;;;8.77;3.00;;;15.60;99.90;;;;;;4907390;29;20051;-94
2022/10/24 03:28:22;;;;;;;9.15;3.42;;;15.50;99.90;;;;;;4892352;29;20063;-94
2022/10/24 03:30:48;;;;;;;9.90;3.17;;;15.50;99.90;;;;;;4913379;29;20497;-95
2022/10/24 03:33:14;;;;;;;11.15;3.50;;;15.50;99.90;;;;;;4903297;29;20496;-95
2022/10/24 03:35:40;;;;;;;9.10;3.03;;;15.50;99.90;;;;;;4901796;29;20039;-95
2022/10/24 03:38:07;;;;;;;10.77;3.67;;;15.50;99.90;;;;;;4896735;29;20039;-95
2022/10/24 03:40:33;;;;;;;9.77;3.80;;;15.40;99.90;;;;;;4902667;29;20046;-95
2022/10/24 03:42:59;;;;;;;10.88;3.78;;;15.50;99.90;;;;;;4922310;29;20040;-96
2022/10/24 03:45:24;;;;;;;8.65;3.10;;;15.50;99.90;;;;;;4904213;29;20067;-94
2022/10/24 03:47:50;;;;;;;8.60;3.28;;;15.50;99.90;;;;;;4920363;29;20185;-95
2022/10/24 03:50:16;;;;;;;11.85;3.58;;;15.50;99.90;;;;;;4914808;29;20137;-96
2022/10/24 03:52:42;;;;;;;11.20;3.55;;;15.50;99.90;;;;;;4903414;29;20039;-96
2022/10/24 03:55:08;;;;;;;9.25;2.97;;;15.50;99.90;;;;;;4898309;29;20044;-94
2022/10/24 03:57:34;;;;;;;8.43;3.10;;;15.50;99.90;;;;;;4916697;29;20127;-95
2022/10/24 04:00:00;;;;;;;9.77;3.03;;;15.50;99.90;;;;;;4894907;29;20064;-95
2022/10/24 04:02:25;;;;;;;9.85;3.15;;;15.50;99.90;;;;;;4913041;29;20047;-96
2022/10/24 04:04:52;;;;;;;8.85;3.25;;;15.50;99.90;;;;;;4904663;29;20404;-96
2022/10/24 04:07:17;;;;;;;8.05;2.92;;;15.50;99.90;;;;;;4916569;29;20032;-94
2022/10/24 04:09:43;;;;;;;10.07;3.30;;;15.50;99.90;;;;;;4900903;29;20106;-94
2022/10/24 04:12:09;;;;;;;9.40;2.95;;;15.50;99.90;;;;;;4906564;29;20561;-95
2022/10/24 04:14:35;;;;;;;9.43;2.90;;;15.50;99.90;;;;;;4904172;29;20048;-94
2022/10/24 04:17:01;;;;;;;8.32;3.03;;;15.50;99.90;;;;;;4912478;29;20040;-95
2022/10/24 04:19:27;;;;;;;7.85;2.53;;;15.50;99.90;;;;;;4921154;29;20113;-94
2022/10/24 04:21:53;;;;;;;10.30;3.40;;;15.50;99.90;;;;;;4931791;29;20036;-94
2022/10/24 04:24:18;;;;;;;9.43;3.20;;;15.50;99.90;;;;;;4931502;29;20043;-94
2022/10/24 04:26:44;;;;;;;7.60;2.80;;;15.50;99.90;;;;;;4918785;29;20052;-95
2022/10/24 04:29:09;;;;;;;8.05;2.80;;;15.50;99.90;;;;;;4925587;29;20044;-94
2022/10/24 04:31:35;;;;;;;10.18;2.92;;;15.40;99.90;;;;;;4921245;29;20040;-94
2022/10/24 04:34:01;;;;;;;11.05;3.30;;;15.40;99.90;;;;;;4907435;29;20036;-95
2022/10/24 04:36:28;;;;;;;10.88;2.80;;;15.40;99.90;;;;;;4896221;29;20367;-95
2022/10/24 04:38:54;;;;;;;8.90;3.00;;;15.40;99.90;;;;;;4895917;29;20046;-94
2022/10/24 04:41:19;;;;;;;8.98;2.88;;;15.40;99.90;;;;;;4903091;29;20059;-94
2022/10/24 04:43:45;;;;;;;8.60;3.00;;;15.50;99.90;;;;;;4899030;29;20040;-96
2022/10/24 04:46:11;;;;;;;8.55;2.65;;;15.50;99.90;;;;;;4899768;29;20065;-96
2022/10/24 04:48:36;;;;;;;8.05;2.50;;;15.50;99.90;;;;;;4915072;29;20092;-93
2022/10/24 04:51:02;;;;;;;10.00;2.63;;;15.50;99.90;;;;;;4905307;29;20069;-94
2022/10/24 04:53:28;;;;;;;8.73;2.58;;;15.50;99.90;;;;;;4900935;29;20783;-93
2022/10/24 04:55:54;;;;;;;10.40;2.70;;;15.50;99.90;;;;;;4914660;29;20040;-93
2022/10/24 04:58:20;;;;;;;7.95;2.50;;;15.50;99.90;;;;;;4915745;29;20040;-96
2022/10/24 05:00:48;;;;;;;10.30;3.08;;;15.50;99.90;;;;;;4899541;29;20079;-93
2022/10/24 05:03:15;;;;;;;8.52;3.10;;;15.50;99.90;;;;;;4896591;29;20222;-96
2022/10/24 05:05:48;;;;;;;8.23;2.45;;;15.50;99.90;;;;;;4926417;29;20059;-95
2022/10/24 05:08:14;;;;;;;8.43;2.67;;;15.40;99.90;;;;;;4909179;29;20030;-92
2022/10/24 05:10:39;;;;;;;10.30;2.72;;;15.40;99.90;;;;;;4919351;29;20032;-96
2022/10/24 05:13:05;;;;;;;9.20;2.70;;;15.40;99.90;;;;;;4916650;29;20054;-94
2022/10/24 05:15:31;;;;;;;9.23;2.65;;;15.40;99.90;;;;;;4900984;29;20040;-93
2022/10/24 05:17:58;;;;;;;9.90;2.65;;;15.40;99.90;;;;;;4914750;29;20036;-95
2022/10/24 05:20:24;;;;;;;7.07;2.33;;;15.40;99.90;;;;;;4926873;29;20028;-90
2022/10/24 05:22:49;;;;;;;8.40;2.50;;;15.40;99.90;;;;;;4923490;29;20035;-96
2022/10/24 05:25:16;;;;;;;9.85;2.30;;;15.30;99.90;;;;;;4931726;29;20035;-95
2022/10/24 05:27:41;;;;;;;11.60;2.80;;;15.30;99.90;;;;;;4910044;29;20036;-94
2022/10/24 05:30:08;;;;;;;10.05;2.63;;;15.30;99.90;;;;;;4920108;29;20054;-96
2022/10/24 05:32:35;;;;;;;7.97;2.35;;;15.30;99.90;;;;;;4905374;29;20063;-93
2022/10/24 05:35:01;;;;;;;9.02;2.33;;;15.30;99.90;;;;;;4893235;29;20056;-95
2022/10/24 05:37:26;;;;;;;7.88;2.15;;;15.30;99.90;;;;;;4903013;29;20044;-94
2022/10/24 05:39:52;;;;;;;9.02;2.15;;;15.30;99.90;;;;;;4900735;29;20122;-96
2022/10/24 05:42:18;;;;;;;7.85;2.13;;;15.30;99.90;;;;;;4918006;29;20066;-95
2022/10/24 05:44:43;;;;;;;9.55;2.40;;;15.20;99.90;;;;;;4919008;29;20043;-95
2022/10/24 05:47:09;;;;;;;7.93;2.10;;;15.20;99.90;;;;;;4919517;29;20803;-95
2022/10/24 05:49:35;;;;;;;7.10;2.22;;;15.20;99.90;;;;;;4901451;29;20051;-91
2022/10/24 05:52:01;;;;;;;7.70;2.08;;;15.20;99.90;;;;;;4892306;29;20047;-91
2022/10/24 05:54:26;;;;;;;9.52;2.50;;;15.20;99.90;;;;;;4912595;29;20119;-93
2022/10/24 05:56:52;;;;;;;8.20;2.20;;;15.20;99.90;;;;;;4894228;29;20492;-96
2022/10/24 05:59:18;;;;;;;8.93;2.20;;;15.30;99.90;;;;;;4897197;29;20092;-96
2022/10/24 06:01:43;;;;;;;9.82;2.17;;;15.30;99.90;;;;;;4896646;29;20052;-95
2022/10/24 06:04:09;;;;;;;7.63;2.13;;;15.30;99.90;;;;;;4907798;29;20075;-92
2022/10/24 06:06:40;;;;;;;8.82;2.30;;;15.40;99.90;;;;;;4898321;29;20476;-94
2022/10/24 06:09:06;;;;;;;8.48;2.10;;;15.40;99.90;;;;;;4892768;29;20409;-93
2022/10/24 06:11:32;;;;;;;8.10;2.00;;;15.40;99.90;;;;;;4907664;29;20044;-94
2022/10/24 06:13:57;;;;;;;7.10;1.98;;;15.40;99.90;;;;;;4899629;29;20115;-94
2022/10/24 06:16:25;;;;;;;8.60;2.15;;;15.40;99.90;;;;;;4896190;29;20035;-95
2022/10/24 06:18:50;;;;;;;6.60;2.08;;;15.40;99.90;;;;;;4911684;29;20056;-93
2022/10/24 06:21:16;;;;;;;9.30;2.33;;;15.50;99.90;;;;;;4904659;29;20026;-92
2022/10/24 06:23:41;;;;;;;5.65;1.95;;;15.40;99.90;;;;;;4906881;29;20055;-96
2022/10/24 06:26:10;;;;;;;8.50;2.30;;;15.40;99.90;;;;;;4892324;29;20087;-93
2022/10/24 06:28:36;;;;;;;8.75;2.17;;;15.40;99.90;;;;;;4899230;29;20051;-95
2022/10/24 06:31:25;;;;;;;8.35;2.05;;;15.40;99.90;;;;;;4904100;29;20497;-96
2022/10/24 06:33:52;;;;;;;7.93;2.42;;;15.40;99.90;;;;;;4921278;29;20056;-96
2022/10/24 06:36:18;;;;;;;7.95;2.22;;;15.40;99.90;;;;;;4893896;29;20055;-95
2022/10/24 06:38:44;;;;;;;8.82;2.30;;;15.40;99.90;;;;;;4907606;29;20044;-96
2022/10/24 06:41:12;;;;;;;9.40;2.55;;;15.40;99.90;;;;;;4895129;29;20063;-93
2022/10/24 06:43:40;;;;;;;9.07;2.25;;;15.40;99.90;;;;;;4891207;29;20047;-95
2022/10/24 06:46:07;;;;;;;7.28;2.20;;;15.40;99.90;;;;;;4933126;29;20032;-93
2022/10/24 06:48:35;;;;;;;9.98;2.40;;;15.40;99.90;;;;;;4893510;29;20382;-93
2022/10/24 06:51:01;;;;;;;8.93;2.30;;;15.40;99.90;;;;;;4899321;29;20035;-95
2022/10/24 06:53:26;;;;;;;9.25;2.58;;;15.30;99.90;;;;;;4919317;29;20056;-95
2022/10/24 06:55:52;;;;;;;9.00;2.28;;;15.30;99.90;;;;;;4911200;29;20051;-88
2022/10/24 06:58:18;;;;;;;7.25;2.08;;;15.20;99.90;;;;;;4910842;29;20503;-89
2022/10/24 07:00:43;;;;;;;8.70;2.25;;;15.20;99.90;;;;;;4930328;29;20119;-90
2022/10/24 07:03:14;;;;;;;6.40;2.05;;;15.20;99.90;;;;;;4903923;29;20086;-88
2022/10/24 07:05:40;;;;;;;7.22;2.20;;;15.20;99.90;;;;;;4922589;29;20062;-89
2022/10/24 07:08:06;;;;;;;11.75;2.40;;;15.20;99.90;;;;;;4909548;29;20458;-89
2022/10/24 07:10:32;;;;;;;10.32;2.30;;;15.30;99.90;;;;;;4893019;29;20040;-87
2022/10/24 07:12:57;;;;;;;7.95;2.38;;;15.30;99.90;;;;;;4906894;29;20048;-89
2022/10/24 07:15:23;;;;;;;7.03;2.25;;;15.40;99.90;;;;;;4907750;29;20049;-88
2022/10/24 07:17:49;;;;;;;8.38;2.40;;;15.50;99.90;;;;;;4909718;29;20048;-88
2022/10/24 07:20:15;;;;;;;10.25;2.20;;;15.50;99.90;;;;;;4925703;29;20040;-88
2022/10/24 07:22:41;;;;;;;7.43;2.20;;;15.50;99.90;;;;;;4911409;29;20481;-89
2022/10/24 07:25:07;;;;;;;9.82;2.10;;;15.60;99.90;;;;;;4927796;29;20067;-87
2022/10/24 07:27:33;;;;;;;8.23;2.25;;;15.60;99.90;;;;;;4921786;29;20778;-88
2022/10/24 07:29:59;;;;;;;7.78;2.15;;;15.70;99.90;;;;;;4909385;29;20112;-90
2022/10/24 07:32:25;;;;;;;9.50;2.10;;;15.70;99.90;;;;;;4925810;29;20164;-89
2022/10/24 07:34:50;;;;;;;8.52;1.95;;;15.70;99.90;;;;;;4926908;29;20949;-90
2022/10/24 07:37:17;;;;;;;9.25;2.33;;;15.80;99.90;;;;;;4911882;29;20052;-90
2022/10/24 07:39:45;;;;;;;6.05;1.80;;;15.80;99.90;;;;;;4915962;29;20058;-90
2022/10/24 07:42:12;;;;;;;7.20;1.92;;;15.80;99.90;;;;;;4902126;29;20050;-89
2022/10/24 07:44:38;;;;;;;6.57;2.03;;;15.80;99.90;;;;;;4917173;29;20035;-89
2022/10/24 07:47:06;;;;;;;9.35;2.38;;;15.80;99.90;;;;;;4914957;29;20510;-89
2022/10/24 07:49:35;;;;;;;8.02;1.83;;;15.70;99.90;;;;;;4934741;29;20051;-87
2022/10/24 07:52:01;;;;;;;7.50;1.80;;;15.80;99.90;;;;;;4917973;29;20078;-87
2022/10/24 07:54:27;;;;;;;8.82;2.30;;;15.80;99.90;;;;;;4915095;29;20032;-88
2022/10/24 07:56:53;;;;;;;6.65;1.98;;;15.80;99.90;;;;;;4917997;29;20080;-91
2022/10/24 07:59:18;;;;;;;8.63;2.20;;;15.90;99.90;;;;;;4903272;29;20067;-90
2022/10/24 08:01:44;;;;;;;8.43;1.90;;;15.90;99.90;;;;;;4918216;29;20519;-90
2022/10/24 08:04:10;;;;;;;8.93;2.20;;;16.00;99.90;;;;;;4913519;29;20071;-91
2022/10/24 08:06:36;;;;;;;8.02;2.00;;;16.00;99.90;;;;;;4913399;29;20047;-89
2022/10/24 08:09:02;;;;;;;8.55;2.20;;;16.10;99.90;;;;;;4915677;29;20051;-87
2022/10/24 08:11:28;;;;;;;8.57;2.30;;;16.10;99.90;;;;;;4914931;29;20404;-87
2022/10/24 08:13:58;;;;;;;8.90;1.88;;;16.10;99.90;;;;;;4901190;29;20047;-93
2022/10/24 08:16:25;;;;;;;8.35;1.90;;;16.20;99.90;;;;;;4923358;29;20142;-94
2022/10/24 08:18:53;;;;;;;8.48;2.17;;;16.10;99.90;;;;;;4927997;29;20040;-94
2022/10/24 08:21:20;;;;;;;10.02;1.73;;;16.20;99.90;;;;;;4925126;29;20489;-94
2022/10/24 08:23:48;;;;;;;9.73;1.90;;;16.30;99.90;;;;;;4927295;29;20043;-96
2022/10/24 08:26:17;;;;;;;7.97;2.30;;;16.40;99.90;;;;;;4928081;29;20035;-94
2022/10/24 08:28:45;;;;;;;8.27;1.80;;;16.40;99.90;;;;;;4914202;29;20066;-94
2022/10/24 08:31:14;;;;;;;10.02;2.10;;;16.40;99.90;;;;;;4922223;29;20103;-95
2022/10/24 08:33:40;;;;;;;11.07;2.40;;;16.50;99.90;;;;;;4922766;29;20105;-91
2022/10/24 08:36:16;;;;;;;9.25;2.45;;;16.50;99.90;;;;;;4936814;29;20039;-94
2022/10/24 08:38:41;;;;;;;9.52;1.70;;;16.60;99.90;;;;;;4933680;29;20052;-94
2022/10/24 08:41:14;;;;;;;9.25;2.50;;;16.60;99.90;;;;;;4916930;29;20609;-86
2022/10/24 08:43:39;;;;;;;9.23;2.03;;;16.60;99.90;;;;;;4934463;29;20044;-87
2022/10/24 08:46:05;;;;;;;8.20;2.00;;;16.70;99.90;;;;;;4920117;29;20042;-84
2022/10/24 08:48:39;;;;;;;9.10;1.90;;;16.80;99.90;;;;;;4919036;29;20055;-87
2022/10/24 08:51:31;;;;;;;8.73;2.22;;;16.80;99.90;;;;;;4916143;29;20465;-85
2022/10/24 08:53:59;;;;;;;11.13;2.13;;;16.80;99.90;;;;;;4922889;29;20127;-85
2022/10/24 08:56:30;;;;;;;8.02;2.33;;;16.90;99.90;;;;;;4916134;29;20062;-85
2022/10/24 08:58:59;;;;;;;10.00;2.03;;;16.90;99.90;;;;;;4896243;29;20052;-86
2022/10/24 09:01:38;;;;;;;6.97;1.90;;;16.90;99.90;;;;;;4890184;29;20103;-86
2022/10/24 09:04:08;;;;;;;9.65;1.80;;;16.90;99.90;;;;;;4916245;29;20058;-86
2022/10/24 09:06:35;;;;;;;7.45;1.80;;;16.80;99.90;;;;;;4916930;29;20394;-86
2022/10/24 09:09:04;;;;;;;7.55;1.95;;;16.80;99.90;;;;;;4896418;29;20456;-85
2022/10/24 09:11:42;;;;;;;9.63;1.98;;;16.80;99.90;;;;;;4914477;29;20503;-85
2022/10/24 09:14:26;;;;;;;8.90;1.98;;;16.80;99.90;;;;;;4896505;29;20073;-86
2022/10/24 09:16:56;;;;;;;9.88;1.95;;;16.80;99.90;;;;;;4899212;29;20095;-85
2022/10/24 09:19:25;;;;;;;9.87;2.00;;;16.70;99.90;;;;;;4917681;29;20071;-86
2022/10/24 09:21:53;;;;;;;9.30;2.28;;;16.70;99.90;;;;;;4917149;29;20789;-86
2022/10/24 09:24:25;;;;;;;9.45;2.10;;;16.70;99.90;;;;;;4933710;29;20118;-86
2022/10/24 09:26:51;;;;;;;8.02;1.90;;;16.70;99.90;;;;;;4898365;29;20075;-86
2022/10/24 09:29:17;;;;;;;11.23;2.10;;;16.80;99.90;;;;;;4880198;29;20101;-87
2022/10/24 09:31:42;;;;;;;12.52;2.50;;;16.80;99.90;;;;;;4879649;29;20048;-86
2022/10/24 09:34:10;;;;;;;8.65;2.03;;;16.80;99.90;;;;;;4863821;29;20119;-86
2022/10/24 09:36:38;;;;;;;9.13;2.00;;;16.80;99.90;;;;;;4902025;29;20050;-86
2022/10/24 09:39:23;;;;;;;11.25;2.60;;;16.90;99.90;;;;;;4919420;29;20084;-87
2022/10/24 09:41:49;;;;;;;8.40;2.30;;;16.90;99.90;;;;;;4901012;29;20052;-86
2022/10/24 09:44:47;;;;;;;9.15;1.95;;;16.90;99.90;;;;;;4896263;29;20092;-83
2022/10/24 09:47:28;;;;;;;9.20;2.00;;;16.90;99.90;;;;;;4899561;29;20123;-87
2022/10/24 09:49:54;;;;;;;8.20;2.03;;;16.90;99.90;;;;;;4897843;29;20128;-87
2022/10/24 09:52:28;;;;;;;9.65;1.90;;;16.90;99.90;;;;;;4914262;29;20051;-87
2022/10/24 09:55:15;;;;;;;7.07;1.60;;;16.90;99.90;;;;;;4895634;29;20048;-86
2022/10/24 09:57:41;;;;;;;10.27;2.13;;;16.90;99.90;;;;;;4892638;29;20063;-87
2022/10/24 10:00:23;;;;;;;8.50;1.80;;;16.90;99.90;;;;;;4912416;29;20378;-86
2022/10/24 10:03:18;;;;;;;8.20;2.05;;;16.90;99.90;;;;;;4891852;29;20584;-87
2022/10/24 10:05:49;;;;;;;10.68;1.90;;;17.00;99.90;;;;;;4897177;29;20484;-90
2022/10/24 10:08:24;;;;;;;6.40;1.83;;;17.00;99.90;;;;;;4896204;29;20135;-91
2022/10/24 10:11:11;;;;;;;10.13;2.10;;;17.10;99.90;;;;;;4916895;29;20054;-88
2022/10/24 10:13:49;;;;;;;10.15;1.83;;;17.10;99.90;;;;;;4898610;29;20048;-89
2022/10/24 10:16:31;;;;;;;9.57;1.73;;;17.10;99.90;;;;;;4896488;29;20138;-90
2022/10/24 10:19:03;;;;;;;11.05;2.45;;;17.10;99.90;;;;;;4888105;29;20051;-89
2022/10/24 10:21:54;;;;;;;7.68;1.60;;;17.10;99.90;;;;;;4897546;29;20050;-88
2022/10/24 10:24:25;;;;;;;8.52;1.58;;;17.10;99.90;;;;;;4898054;29;20474;-88
2022/10/24 10:26:50;;;;;;;;;;;17.10;99.90;;;;;;4901756;29;20095;-88
2022/10/24 10:29:16;;;;;;;8.38;1.63;;;17.10;99.90;;;;;;4918232;29;19923;-88
2022/10/24 10:31:45;;;;;;;6.47;1.40;;;17.10;99.90;;;;;;4898979;29;20040;-89
2022/10/24 10:34:16;;;;;;;6.68;1.52;;;17.20;99.90;;;;;;4900269;29;20051;-90
2022/10/24 10:36:54;;;;;;;7.22;1.48;;;17.10;99.90;;;;;;4916796;29;20065;-91
2022/10/24 10:39:48;;;;;;;5.90;1.60;;;17.10;99.90;;;;;;4883644;29;20047;-89
2022/10/24 10:42:28;;;;;;;5.57;1.27;;;17.10;99.90;;;;;;4899145;29;20044;-88
2022/10/24 10:45:15;;;;;;;7.90;1.55;;;17.10;99.90;;;;;;4892249;29;20044;-88
2022/10/24 10:48:18;;;;;;;7.47;1.55;;;17.10;99.90;;;;;;4928096;29;20107;-92
2022/10/24 10:50:57;;;;;;;8.95;1.85;;;17.10;99.90;;;;;;4898949;29;20412;-94
2022/10/24 10:53:35;;;;;;;7.28;1.70;;;17.20;99.90;;;;;;4886743;29;20104;-93
2022/10/24 10:56:09;;;;;;;8.90;1.60;;;17.20;99.90;;;;;;4902958;29;20473;-92
2022/10/24 10:58:58;;;;;;;10.23;1.80;;;17.30;99.90;;;;;;4901018;29;20059;-91
2022/10/24 11:01:24;;;;;;;8.00;1.67;;;17.30;99.90;;;;;;4900619;29;20059;-93
2022/10/24 11:04:08;;;;;;;8.73;1.80;;;17.30;99.90;;;;;;4897323;29;20040;-92
2022/10/24 11:06:43;;;;;;;6.80;1.52;;;17.20;99.90;;;;;;4883231;29;20500;-93
2022/10/24 11:09:23;;;;;;;8.40;1.58;;;17.30;99.90;;;;;;4872332;29;20078;-92
2022/10/24 11:12:31;;;;;;;10.05;1.60;;;17.40;99.90;;;;;;4899211;29;20044;-88
2022/10/24 11:15:05;;;;;;;8.18;1.70;;;17.50;99.90;;;;;;4825416;29;20041;-87
2022/10/24 11:17:39;;;;;;;7.90;1.45;;;17.60;99.90;;;;;;4839976;29;20082;-87
2022/10/24 11:20:23;;;;;;;7.35;1.50;;;17.50;99.90;;;;;;4839137;29;20065;-86
2022/10/24 11:23:06;;;;;;;7.88;1.70;;;17.40;99.90;;;;;;4824697;29;20105;-88
2022/10/24 11:25:48;;;;;;;6.15;1.30;;;17.40;99.90;;;;;;4840428;29;20054;-89
2022/10/24 11:28:29;;;;;;;7.78;1.70;;;17.30;99.90;;;;;;4855838;29;20428;-88
2022/10/24 11:31:09;;;;;;;6.80;1.48;;;17.30;99.90;;;;;;4840274;29;20041;-88
2022/10/24 11:33:45;;;;;;;6.22;1.60;;;17.30;99.90;;;;;;4824928;29;20137;-89
2022/10/24 11:36:19;;;;;;;8.32;1.90;;;17.30;99.90;;;;;;4858749;29;20078;-89
2022/10/24 11:38:54;;;;;;;5.72;1.13;;;17.30;99.90;;;;;;4829760;29;20114;-88
2022/10/24 11:41:48;;;;;;;5.45;1.33;;;17.20;99.90;;;;;;4837920;29;20060;-88
2022/10/24 11:44:39;;;;;;;9.00;2.22;;;17.20;99.90;;;;;;4843224;29;20174;-87
2022/10/24 11:47:24;;;;;;;8.40;1.75;;;17.20;99.90;;;;;;4905612;29;20127;-89
2022/10/24 11:50:28;;;;;;;6.82;1.67;;;17.20;99.90;;;;;;4902332;29;20055;-88
2022/10/24 11:53:03;;;;;;;7.63;1.65;;;17.30;99.90;;;;;;4864480;29;20060;-88
2022/10/24 11:55:37;;;;;;;8.52;1.45;;;17.40;99.90;;;;;;4898651;29;20052;-87
2022/10/24 11:58:08;;;;;;;8.63;1.48;;;17.40;99.90;;;;;;4898886;29;20051;-87
2022/10/24 12:01:10;;;;;;;7.95;1.63;;;17.30;99.90;;;;;;4917030;29;20781;-87
2022/10/24 12:04:12;;;;;;;7.72;1.50;;;17.30;99.90;;;;;;4901521;29;20066;-87
2022/10/24 12:06:51;;;;;;;5.43;1.52;;;17.20;99.90;;;;;;4883790;29;20055;-88
2022/10/24 12:09:41;;;;;;;5.85;1.30;;;17.10;99.90;;;;;;4898924;29;20059;-87
2022/10/24 12:12:30;;;;;;;8.88;1.50;;;17.10;99.90;;;;;;4915350;29;20048;-87
2022/10/24 12:15:20;;;;;;;7.80;1.45;;;17.10;99.90;;;;;;4899558;29;20379;-85
2022/10/24 12:18:01;;;;;;;8.77;1.75;;;17.00;99.90;;;;;;4898635;29;20060;-86
2022/10/24 12:20:27;;;;;;;8.07;1.42;;;17.00;99.90;;;;;;4917345;29;20047;-87
2022/10/24 12:22:54;;;;;;;7.25;1.58;;;17.00;99.90;;;;;;4937801;29;20398;-89
2022/10/24 12:25:25;;;;;;;6.53;1.30;;;17.00;99.90;;;;;;4915709;29;20043;-86
2022/10/24 12:27:54;;;;;;;6.32;1.27;;;17.00;99.90;;;;;;4900149;29;20071;-88
2022/10/24 12:30:23;;;;;;;6.93;1.63;;;17.10;99.90;;;;;;4900102;29;20036;-87
2022/10/24 12:33:29;;;;;;;8.55;1.52;;;17.10;99.90;;;;;;4900564;29;20382;-87
2022/10/24 12:35:56;;;;;;;7.20;1.30;;;17.10;99.90;;;;;;4927592;29;20044;-87
2022/10/24 12:38:27;;;;;;;8.73;1.48;;;17.10;99.90;;;;;;4928414;29;20036;-87
2022/10/24 12:40:54;;;;;;;6.05;1.15;;;17.00;99.90;;;;;;4907822;29;20041;-87
2022/10/24 12:43:39;;;;;;;7.38;1.50;;;17.10;99.90;;;;;;4908489;29;20051;-87
2022/10/24 12:46:14;;;;;;;5.75;1.45;;;16.90;99.90;;;;;;4906671;29;20081;-86
2022/10/24 12:48:58;;;;;;;7.03;1.50;;;16.90;99.90;;;;;;4948889;29;20087;-89
2022/10/24 12:51:30;;;;;;;8.35;1.67;;;16.90;99.90;;;;;;4916934;29;20048;-86
2022/10/24 12:54:10;;;;;;;7.72;1.75;;;16.90;99.90;;;;;;4912785;29;20080;-86
2022/10/24 12:56:57;;;;;;;7.03;1.40;;;16.90;99.90;;;;;;4915411;29;20040;-90
2022/10/24 12:59:33;;;;;;;8.25;1.55;;;16.80;99.90;;;;;;4916084;29;20051;-87
2022/10/24 13:02:14;;;;;;;6.43;1.50;;;16.70;99.90;;;;;;4899306;29;20058;-86
2022/10/24 13:05:13;;;;;;;4.40;1.10;;;16.70;99.90;;;;;;4890523;29;20060;-87
2022/10/24 13:07:50;;;;;;;5.88;1.38;;;16.70;99.90;;;;;;4910523;29;20123;-87
2022/10/24 13:10:49;;;;;;;6.80;1.33;;;16.70;99.90;;;;;;4915072;29;20049;-88
2022/10/24 13:13:37;;;;;;;6.95;1.50;;;16.70;99.90;;;;;;4900328;29;20051;-89
2022/10/24 13:16:30;;;;;;;8.05;1.40;;;16.80;99.90;;;;;;4905626;29;20105;-89
2022/10/24 13:19:10;;;;;;;7.15;1.50;;;16.80;99.90;;;;;;4903404;29;20041;-88
2022/10/24 13:21:48;;;;;;;6.25;1.40;;;16.80;99.90;;;;;;4890209;29;20105;-87
2022/10/24 13:24:13;;;;;;;6.32;1.30;;;16.80;99.90;;;;;;4909539;29;20172;-88
2022/10/24 13:26:54;;;;;;;7.75;1.40;;;16.80;99.90;;;;;;4896306;29;20126;-88
2022/10/24 13:29:23;;;;;;;7.43;1.65;;;16.80;99.90;;;;;;4894068;29;20052;-87
2022/10/24 13:31:51;;;;;;;7.00;1.25;;;16.80;99.90;;;;;;4893633;29;20051;-86
2022/10/24 13:34:25;;;;;;;5.90;1.40;;;16.70;99.90;;;;;;4895544;29;20043;-88
2022/10/24 13:37:06;;;;;;;6.35;1.10;;;16.70;99.90;;;;;;4886923;29;20123;-88
2022/10/24 13:39:40;;;;;;;4.70;1.30;;;16.70;99.90;;;;;;4880829;29;20044;-88
2022/10/24 13:42:17;;;;;;;3.95;0.90;;;16.70;99.90;;;;;;4879341;29;20041;-86
2022/10/24 13:44:47;;;;;;;6.53;1.30;;;16.70;99.90;;;;;;4890744;29;20047;-89
2022/10/24 13:47:19;;;;;;;6.72;1.35;;;16.70;99.90;;;;;;4913028;29;20076;-88
2022/10/24 13:49:53;;;;;;;6.15;1.27;;;16.70;99.90;;;;;;4903947;29;20044;-88
2022/10/24 13:52:35;;;;;;;8.88;1.55;;;16.70;99.90;;;;;;4898018;29;20055;-88
2022/10/24 13:55:20;;;;;;;7.50;1.48;;;16.70;99.90;;;;;;4897595;29;20048;-89
2022/10/24 13:58:07;;;;;;;5.40;1.60;;;16.60;99.90;;;;;;4887510;29;20055;-88
2022/10/24 14:01:05;;;;;;;6.68;1.42;;;16.60;99.90;;;;;;4896461;29;20052;-88
2022/10/24 14:03:32;;;;;;;7.53;1.48;;;16.50;99.90;;;;;;4901925;29;20393;-89
2022/10/24 14:06:02;;;;;;;9.02;1.73;;;16.50;99.90;;;;;;4921428;29;20079;-88
2022/10/24 14:08:49;;;;;;;5.80;1.52;;;16.50;99.90;;;;;;4903471;29;20048;-89
2022/10/24 14:11:21;;;;;;;8.82;1.73;;;16.40;99.90;;;;;;4904538;29;20390;-87
2022/10/24 14:13:58;;;;;;;7.35;1.70;;;16.40;99.90;;;;;;4918613;29;20044;-90
2022/10/24 14:16:26;;;;;;;8.73;1.73;;;16.30;99.90;;;;;;4886160;29;20054;-87
2022/10/24 14:19:22;;;;;;;8.52;1.60;;;16.30;99.90;;;;;;4886434;29;20077;-88
2022/10/24 14:21:47;;;;;;;6.93;1.60;;;16.30;99.90;;;;;;4939614;29;20044;-89
2022/10/24 14:24:15;;;;;;;7.38;1.50;;;16.30;99.90;;;;;;4907596;29;20069;-88
2022/10/24 14:26:42;;;;;;;6.30;1.30;;;16.30;99.90;;;;;;4924121;29;20075;-88
2022/10/24 14:29:37;;;;;;;8.05;1.90;;;16.30;99.90;;;;;;4919552;29;20374;-88
2022/10/24 14:32:06;;;;;;;6.68;1.60;;;16.30;99.90;;;;;;4901564;29;20056;-87
2022/10/24 14:34:35;;;;;;;5.97;1.63;;;16.30;99.90;;;;;;4920364;29;20044;-88
2022/10/24 14:37:05;;;;;;;6.70;1.60;;;16.30;99.90;;;;;;4921518;29;20447;-87
2022/10/24 14:39:31;;;;;;;5.70;2.03;;;16.30;99.90;;;;;;4888650;29;20044;-88
2022/10/24 14:42:00;;;;;;;8.18;1.80;;;16.30;99.90;;;;;;4904060;29;20087;-88
2022/10/24 14:44:26;;;;;;;6.88;1.83;;;16.30;99.90;;;;;;4920693;29;20048;-88
2022/10/24 14:47:05;;;;;;;6.10;1.80;;;16.40;99.90;;;;;;4888298;29;20091;-87
2022/10/24 14:49:35;;;;;;;7.75;1.92;;;16.30;99.90;;;;;;4902676;29;20044;-87
2022/10/24 14:52:35;;;;;;;6.50;1.58;;;16.30;99.90;;;;;;4903995;29;20059;-91
2022/10/24 14:55:05;;;;;;;9.65;1.77;;;16.30;99.90;;;;;;4912339;29;20043;-90
2022/10/24 14:57:33;;;;;;;7.82;2.13;;;16.20;99.90;;;;;;4884867;29;20084;-90
2022/10/24 15:00:05;;;;;;;6.93;1.95;;;16.20;99.90;;;;;;4920398;29;20040;-89
2022/10/24 15:02:36;;;;;;;7.07;2.00;;;16.10;99.90;;;;;;4917120;29;20086;-88
2022/10/24 15:05:18;;;;;;;7.60;2.10;;;16.10;99.90;;;;;;4900992;29;20041;-87
2022/10/24 15:07:52;;;;;;;7.28;2.00;;;16.10;99.90;;;;;;4885523;29;20048;-89
2022/10/24 15:10:17;;;;;;;6.93;1.80;;;16.00;99.90;;;;;;4897282;29;20112;-89
2022/10/24 15:12:58;;;;;;;5.38;1.42;;;16.00;99.90;;;;;;4903979;29;20044;-88